Time;durP1;ratioP1;P1;durP2;ratioP2;P2;SDS_P1;SDS_P2;PMS_P1;PMS_P2;Temp;Humidity;BMP_temperature;BMP_pressure;BME280_temperature;BME280_humidity;BME280_pressure;Samples;Min_cycle;Max_cycle;Signal;HPM_P1;HPM_P2
2022/04/14 00:01:57;;;;;;;4.62;0.88;;;;;;;10.55;35.42;101581.83;1780601;80;28341;-59
2022/04/14 00:04:23;;;;;;;1.35;1.05;;;;;;;10.55;35.26;101577.30;1779305;80;26464;-60
2022/04/14 00:06:51;;;;;;;2.47;0.90;;;;;;;10.55;35.08;101569.73;1779037;80;25806;-59
2022/04/14 00:09:18;;;;;;;4.62;1.05;;;;;;;10.56;35.14;101569.59;1779378;80;26083;-59
2022/04/14 00:11:45;;;;;;;6.00;1.05;;;;;;;10.58;35.17;101574.89;1779424;80;25615;-59
2022/04/14 00:14:12;;;;;;;1.22;1.02;;;;;;;10.57;35.12;101569.97;1779280;80;27533;-59
2022/04/14 00:16:39;;;;;;;7.55;0.90;;;;;;;10.54;35.05;101571.55;1779292;80;25777;-59
2022/04/14 00:19:07;;;;;;;1.98;0.78;;;;;;;10.55;35.13;101572.41;1779397;79;25746;-59
2022/04/14 00:21:34;;;;;;;2.42;0.95;;;;;;;10.54;34.90;101576.92;1779246;80;26950;-59
2022/04/14 00:24:01;;;;;;;6.47;1.00;;;;;;;10.56;34.87;101573.63;1779728;79;25893;-59
2022/04/14 00:26:28;;;;;;;1.55;1.00;;;;;;;10.58;34.95;101585.65;1779245;79;27288;-59
2022/04/14 00:28:55;;;;;;;2.92;1.15;;;;;;;10.54;34.79;101590.38;1779503;80;25640;-59
2022/04/14 00:31:22;;;;;;;3.55;0.88;;;;;;;10.56;34.89;101595.16;1779299;80;25699;-59
2022/04/14 00:33:49;;;;;;;5.78;1.20;;;;;;;10.53;35.01;101594.53;1770358;80;26102;-60
2022/04/14 00:36:16;;;;;;;4.40;1.10;;;;;;;10.46;35.05;101586.94;1769073;80;26084;-59
2022/04/14 00:38:44;;;;;;;7.00;1.77;;;;;;;10.41;35.22;101586.41;1768586;80;27476;-60
2022/04/14 00:41:11;;;;;;;5.12;2.35;;;;;;;10.38;35.56;101595.20;1769014;80;26015;-59
2022/04/14 00:43:39;;;;;;;6.83;3.15;;;;;;;10.34;35.79;101592.72;1770954;80;25827;-59
2022/04/14 00:46:06;;;;;;;3.87;2.33;;;;;;;10.28;36.09;101597.19;1779126;80;26109;-59
2022/04/14 00:48:34;;;;;;;5.05;1.70;;;;;;;10.23;36.35;101595.34;1779421;80;25750;-59
2022/04/14 00:51:03;;;;;;;6.40;1.67;;;;;;;10.18;36.47;101600.19;1779638;80;27423;-59
2022/04/14 00:53:30;;;;;;;6.37;1.27;;;;;;;10.17;36.45;101602.53;1779084;80;25694;-59
2022/04/14 00:55:57;;;;;;;2.35;1.20;;;;;;;10.18;36.53;101597.50;1778975;80;25683;-59
2022/04/14 00:58:24;;;;;;;3.72;1.20;;;;;;;10.18;36.87;101600.19;1774685;80;26117;-59
2022/04/14 01:00:52;;;;;;;1.98;1.62;;;;;;;10.15;36.90;101599.93;1769110;80;25727;-59
2022/04/14 01:03:19;;;;;;;6.35;1.17;;;;;;;10.12;37.06;101600.65;1775776;80;27467;-59
2022/04/14 01:05:47;;;;;;;2.62;1.12;;;;;;;10.09;37.25;101599.05;1782427;80;25710;-59
2022/04/14 01:08:17;;;;;;;3.15;1.10;;;;;;;10.09;37.32;101603.08;1783089;79;25777;-60
2022/04/14 01:10:49;;;;;;;4.85;1.00;;;;;;;10.09;37.36;101601.73;1782724;80;26162;-59
2022/04/14 01:13:18;;;;;;;6.37;1.22;;;;;;;10.09;37.45;101601.73;1783110;80;25594;-59
2022/04/14 01:15:47;;;;;;;3.95;1.00;;;;;;;10.09;37.66;101607.11;1783190;80;27453;-59
2022/04/14 01:18:16;;;;;;;3.95;1.10;;;;;;;10.05;37.62;101590.82;1782755;79;25880;-59
2022/04/14 01:20:43;;;;;;;3.70;1.32;;;;;;;10.07;37.51;101597.45;1783100;80;25638;-59
2022/04/14 01:23:11;;;;;;;8.93;1.10;;;;;;;10.08;37.64;101598.67;1782847;79;26729;-59
2022/04/14 01:25:39;;;;;;;7.08;1.40;;;;;;;10.08;37.59;101597.83;1783237;79;25453;-59
2022/04/14 01:28:07;;;;;;;4.08;1.20;;;;;;;10.09;37.68;101600.39;1782924;80;27534;-59
2022/04/14 01:30:36;;;;;;;3.65;1.20;;;;;;;10.12;37.86;101603.34;1783113;79;25754;-59
2022/04/14 01:33:04;;;;;;;5.35;1.40;;;;;;;10.11;37.83;101605.18;1783238;80;25748;-59
2022/04/14 01:35:31;;;;;;;3.10;1.10;;;;;;;10.11;37.92;101610.56;1782997;80;26131;-59
2022/04/14 01:37:58;;;;;;;2.90;1.22;;;;;;;10.08;37.96;101609.92;1783079;80;25530;-60
2022/04/14 01:40:28;;;;;;;5.60;1.37;;;;;;;10.03;37.77;101608.42;1783234;79;27873;-59
2022/04/14 01:42:55;;;;;;;2.20;1.15;;;;;;;10.02;37.80;101607.20;1782997;79;25772;-59
2022/04/14 01:45:22;;;;;;;9.40;2.20;;;;;;;10.01;37.96;101610.85;1774952;79;25707;-59
2022/04/14 01:47:49;;;;;;;2.27;1.15;;;;;;;9.96;38.17;101607.16;1774093;80;26113;-59
2022/04/14 01:50:18;;;;;;;6.22;1.60;;;;;;;9.94;37.95;101606.91;1774055;80;25456;-59
2022/04/14 01:52:45;;;;;;;8.83;1.77;;;;;;;9.93;37.99;101607.86;1776157;80;27486;-60
2022/04/14 01:55:13;;;;;;;3.83;1.50;;;;;;;9.92;37.90;101606.98;1781387;80;25713;-59
2022/04/14 01:57:40;;;;;;;4.83;1.52;;;;;;;9.91;37.96;101603.08;1781595;80;25743;-59
2022/04/14 02:00:10;;;;;;;5.37;1.55;;;;;;;9.89;37.77;101603.20;1783136;80;26747;-59
2022/04/14 02:02:39;;;;;;;5.72;1.42;;;;;;;9.86;37.75;101603.41;1782564;80;25745;-59
2022/04/14 02:05:08;;;;;;;4.37;1.50;;;;;;;9.87;37.70;101603.79;1781409;80;27496;-59
2022/04/14 02:07:35;;;;;;;5.72;1.75;;;;;;;9.85;37.52;101604.38;1781350;80;25862;-59
2022/04/14 02:10:02;;;;;;;5.75;1.52;;;;;;;9.85;37.67;101612.44;1781427;80;25490;-59
2022/04/14 02:12:30;;;;;;;4.70;1.50;;;;;;;9.80;37.74;101606.05;1781412;80;26821;-59
2022/04/14 02:14:57;;;;;;;7.05;1.80;;;;;;;9.76;37.71;101605.05;1781417;79;25473;-59
2022/04/14 02:17:24;;;;;;;5.05;1.90;;;;;;;9.70;37.83;101612.59;1781421;79;27481;-59
2022/04/14 02:19:51;;;;;;;6.30;1.92;;;;;;;9.69;37.86;101612.67;1781364;80;25776;-58
2022/04/14 02:22:18;;;;;;;8.13;2.12;;;;;;;9.66;37.73;101609.73;1781310;80;25790;-58
2022/04/14 02:24:45;;;;;;;3.95;1.52;;;;;;;9.64;37.83;101606.29;1781819;79;26921;-58
2022/04/14 02:27:12;;;;;;;4.25;1.77;;;;;;;9.63;37.77;101607.75;1781283;80;27331;-59
2022/04/14 02:29:40;;;;;;;6.10;1.92;;;;;;;9.61;37.71;101611.91;1781439;80;28146;-58
2022/04/14 02:32:09;;;;;;;3.47;1.70;;;;;;;9.62;37.77;101619.46;1781299;80;26055;-58
2022/04/14 02:34:35;;;;;;;4.30;1.60;;;;;;;9.60;37.95;101616.02;1781339;79;25481;-59
2022/04/14 02:37:03;;;;;;;4.22;1.60;;;;;;;9.57;38.01;101622.48;1781304;80;26079;-59
2022/04/14 02:39:31;;;;;;;6.87;1.72;;;;;;;9.58;38.06;101617.98;1781834;79;25770;-58
2022/04/14 02:41:58;;;;;;;5.50;1.42;;;;;;;9.61;37.98;101619.96;1781240;80;27484;-59
2022/04/14 02:44:25;;;;;;;11.15;1.42;;;;;;;9.61;38.01;101620.42;1777542;80;26333;-59
2022/04/14 02:46:52;;;;;;;16.75;7.17;;;;;;;9.57;37.94;101625.66;1774023;80;25647;-58
2022/04/14 02:49:19;;;;;;;6.58;2.40;;;;;;;9.56;37.95;101627.47;1774328;80;26930;-59
2022/04/14 02:51:45;;;;;;;5.97;2.55;;;;;;;9.55;37.90;101626.63;1773857;80;25674;-59
2022/04/14 02:54:12;;;;;;;14.33;2.47;;;;;;;9.52;38.09;101627.33;1773964;80;26770;-58
2022/04/14 02:56:39;;;;;;;5.60;1.70;;;;;;;9.47;38.27;101622.75;1773844;80;25825;-58
2022/04/14 02:59:06;;;;;;;9.85;2.05;;;;;;;9.40;38.43;101621.84;1774326;80;25512;-58
2022/04/14 03:01:33;;;;;;;11.05;2.17;;;;;;;9.36;38.59;101628.41;1773960;80;26105;-58
2022/04/14 03:04:00;;;;;;;6.60;1.98;;;;;;;9.30;38.69;101627.97;1780459;79;25851;-59
2022/04/14 03:06:26;;;;;;;7.20;1.98;;;;;;;9.28;38.91;101629.41;1779513;80;27453;-59
2022/04/14 03:08:53;;;;;;;7.62;1.77;;;;;;;9.30;38.64;101628.81;1778995;80;25810;-58
2022/04/14 03:11:20;;;;;;;12.95;2.02;;;;;;;9.29;38.67;101624.41;1779209;80;25766;-58
2022/04/14 03:13:47;;;;;;;8.13;2.83;;;;;;;9.31;38.75;101629.70;1779253;80;26305;-58
2022/04/14 03:16:14;;;;;;;6.58;2.10;;;;;;;9.33;38.78;101631.30;1779051;80;25719;-58
2022/04/14 03:18:41;;;;;;;8.63;4.50;;;;;;;9.34;38.83;101630.34;1779210;80;27487;-59
2022/04/14 03:21:11;;;;;;;5.03;2.42;;;;;;;9.38;39.01;101630.48;1779162;79;25825;-59
2022/04/14 03:23:39;;;;;;;8.65;2.42;;;;;;;9.39;38.81;101626.83;1779242;79;25715;-59
2022/04/14 03:26:08;;;;;;;11.50;2.40;;;;;;;9.39;38.57;101629.52;1779025;80;25937;-58
2022/04/14 03:28:36;;;;;;;8.68;1.98;;;;;;;9.43;38.49;101630.66;1779513;79;25726;-58
2022/04/14 03:31:04;;;;;;;7.05;3.00;;;;;;;9.44;38.37;101625.17;1779064;80;27464;-58
2022/04/14 03:33:31;;;;;;;4.78;2.42;;;;;;;9.43;38.15;101626.13;1779393;80;25536;-58
2022/04/14 03:35:58;;;;;;;17.92;3.20;;;;;;;9.46;38.21;101634.48;1779184;80;25781;-58
2022/04/14 03:38:25;;;;;;;13.28;2.98;;;;;;;9.43;38.21;101626.63;1779009;79;26062;-59
2022/04/14 03:40:53;;;;;;;8.58;4.28;;;;;;;9.40;38.19;101631.24;1779304;80;25781;-58
2022/04/14 03:43:20;;;;;;;9.13;2.33;;;;;;;9.35;38.19;101628.03;1778534;80;28545;-59
2022/04/14 03:45:47;;;;;;;14.00;2.77;;;;;;;9.30;38.45;101632.84;1769276;81;25791;-58
2022/04/14 03:48:14;;;;;;;15.40;4.75;;;;;;;9.23;38.62;101634.24;1769352;80;25676;-59
2022/04/14 03:50:41;;;;;;;9.18;3.83;;;;;;;9.16;38.80;101633.80;1769226;81;26324;-59
2022/04/14 03:53:07;;;;;;;4.90;2.50;;;;;;;9.08;38.88;101641.52;1769573;80;25453;-59
2022/04/14 03:55:34;;;;;;;8.20;2.33;;;;;;;8.99;38.92;101647.52;1769181;80;28459;-58
2022/04/14 03:58:01;;;;;;;11.08;2.33;;;;;;;8.94;39.14;101653.20;1769058;80;25762;-58
2022/04/14 04:00:28;;;;;;;9.93;2.45;;;;;;;8.87;39.09;101654.58;1769339;81;25738;-58
2022/04/14 04:02:55;;;;;;;11.70;2.08;;;;;;;8.84;39.29;101657.00;1773362;79;26031;-59
2022/04/14 04:05:22;;;;;;;9.85;2.22;;;;;;;8.80;39.28;101651.94;1779202;79;25831;-59
2022/04/14 04:07:49;;;;;;;66.28;5.10;;;;;;;8.76;39.27;101660.19;1779207;79;27474;-59
2022/04/14 04:10:16;;;;;;;13.48;2.70;;;;;;;8.70;39.33;101655.70;1779226;80;25747;-59
2022/04/14 04:12:43;;;;;;;14.33;2.17;;;;;;;8.66;39.54;101665.77;1779327;79;25451;-59
2022/04/14 04:15:11;;;;;;;9.60;2.10;;;;;;;8.63;39.44;101670.48;1779335;80;26145;-59
2022/04/14 04:17:39;;;;;;;11.48;1.92;;;;;;;8.58;39.51;101672.13;1779769;80;26054;-59
2022/04/14 04:20:08;;;;;;;10.10;2.60;;;;;;;8.56;39.73;101670.91;1779315;80;27682;-59
2022/04/14 04:22:35;;;;;;;13.28;2.95;;;;;;;8.52;39.90;101666.69;1779393;79;25719;-59
2022/04/14 04:25:04;;;;;;;6.45;1.92;;;;;;;8.50;39.82;101669.97;1779316;80;25748;-59
2022/04/14 04:27:32;;;;;;;18.75;2.20;;;;;;;8.49;39.83;101670.05;1779560;79;25987;-59
2022/04/14 04:29:58;;;;;;;12.15;2.10;;;;;;;8.48;39.88;101669.20;1779299;80;25715;-59
2022/04/14 04:32:25;;;;;;;7.45;2.50;;;;;;;8.47;39.94;101668.82;1778987;80;27569;-59
2022/04/14 04:34:52;;;;;;;8.38;2.40;;;;;;;8.44;39.98;101668.52;1779158;80;25747;-59
2022/04/14 04:37:19;;;;;;;10.23;3.40;;;;;;;8.36;40.30;101666.81;1779603;80;25636;-59
2022/04/14 04:39:46;;;;;;;16.75;4.45;;;;;;;8.32;40.26;101674.66;1779159;79;26095;-59
2022/04/14 04:42:12;;;;;;;12.85;3.47;;;;;;;8.21;40.42;101675.36;1779623;79;25700;-58
2022/04/14 04:44:39;;;;;;;13.80;3.90;;;;;;;8.12;40.65;101677.30;1772408;80;27469;-58
2022/04/14 04:47:06;;;;;;;9.13;3.12;;;;;;;8.05;40.75;101689.38;1769465;80;25458;-59
2022/04/14 04:49:33;;;;;;;6.85;2.47;;;;;;;7.97;41.29;101680.47;1769043;80;25846;-59
2022/04/14 04:52:00;;;;;;;10.70;2.70;;;;;;;7.93;41.24;101684.31;1769152;81;26126;-58
2022/04/14 04:54:27;;;;;;;15.20;4.30;;;;;;;7.93;41.25;101687.84;1769001;80;25750;-58
2022/04/14 04:56:53;;;;;;;6.45;2.80;;;;;;;7.98;41.49;101687.55;1769078;81;27506;-58
2022/04/14 04:59:22;;;;;;;8.45;4.20;;;;;;;7.97;41.28;101692.06;1769031;80;25806;-59
2022/04/14 05:01:48;;;;;;;11.95;3.33;;;;;;;8.00;41.30;101696.36;1769285;81;25812;-59
2022/04/14 05:04:16;;;;;;;9.78;3.12;;;;;;;8.03;41.11;101685.42;1780608;80;26037;-59
2022/04/14 05:06:42;;;;;;;13.72;3.55;;;;;;;8.08;41.44;101690.03;1782083;80;25490;-59
2022/04/14 05:09:09;;;;;;;13.28;3.95;;;;;;;8.22;40.98;101690.95;1783563;80;27588;-59
2022/04/14 05:11:36;;;;;;;5.92;3.20;;;;;;;8.30;41.12;101694.00;1783028;80;25804;-59
2022/04/14 05:14:02;;;;;;;6.75;2.95;;;;;;;8.38;41.08;101689.00;1783128;79;25768;-59
2022/04/14 05:16:30;;;;;;;8.73;3.35;;;;;;;8.44;41.04;101687.75;1783266;80;26467;-59
2022/04/14 05:18:56;;;;;;;13.43;3.12;;;;;;;8.51;41.02;101693.16;1783005;80;25799;-60
2022/04/14 05:21:23;;;;;;;7.42;3.30;;;;;;;8.56;41.22;101700.89;1783025;80;27489;-59
2022/04/14 05:23:50;;;;;;;14.85;3.50;;;;;;;8.59;41.28;101706.04;1783081;80;25757;-59
2022/04/14 05:26:17;;;;;;;11.78;3.30;;;;;;;8.61;41.48;101702.29;1782947;80;25730;-59
2022/04/14 05:28:44;;;;;;;17.17;4.22;;;;;;;8.65;41.20;101708.31;1783260;80;26728;-59
2022/04/14 05:31:11;;;;;;;15.32;3.65;;;;;;;8.61;41.05;101706.31;1783197;80;25680;-59
2022/04/14 05:33:38;;;;;;;10.03;3.42;;;;;;;8.59;41.05;101714.09;1782923;80;27461;-59
2022/04/14 05:36:06;;;;;;;13.38;3.02;;;;;;;8.57;41.42;101717.34;1783117;80;25681;-60
2022/04/14 05:38:33;;;;;;;11.53;3.47;;;;;;;8.56;41.51;101717.84;1783440;79;25491;-59
2022/04/14 05:41:00;;;;;;;11.28;3.30;;;;;;;8.61;41.29;101722.41;1783053;80;26672;-60
2022/04/14 05:43:28;;;;;;;9.13;3.12;;;;;;;8.65;41.20;101720.38;1782114;80;25842;-60
2022/04/14 05:45:56;;;;;;;10.60;3.27;;;;;;;8.73;41.40;101723.91;1773789;80;27403;-60
2022/04/14 05:48:23;;;;;;;10.00;3.25;;;;;;;8.83;41.31;101721.01;1774271;80;25797;-59
2022/04/14 05:50:50;;;;;;;8.83;2.98;;;;;;;8.92;40.65;101724.89;1774080;80;25770;-60
2022/04/14 05:53:20;;;;;;;13.85;4.05;;;;;;;8.97;40.43;101719.22;1781633;79;26111;-59
2022/04/14 05:55:47;;;;;;;8.55;3.02;;;;;;;8.99;40.38;101712.81;1774343;80;25923;-59
2022/04/14 05:58:14;;;;;;;15.05;3.87;;;;;;;9.04;39.92;101728.61;1779863;80;27441;-60
2022/04/14 06:00:41;;;;;;;16.80;3.98;;;;;;;9.03;40.20;101715.65;1782816;80;25790;-60
2022/04/14 06:03:08;;;;;;;10.38;3.47;;;;;;;9.04;39.96;101713.84;1778063;79;25632;-60
2022/04/14 06:05:35;;;;;;;17.23;4.12;;;;;;;9.05;40.06;101723.62;1774001;80;26119;-59
2022/04/14 06:08:03;;;;;;;10.18;4.00;;;;;;;9.07;40.17;101733.28;1778919;79;27323;-60
2022/04/14 06:10:30;;;;;;;9.05;3.83;;;;;;;9.17;40.24;101726.80;1775947;80;27455;-60
2022/04/14 06:12:57;;;;;;;11.33;3.62;;;;;;;9.23;39.87;101722.34;1777758;80;25706;-59
2022/04/14 06:15:29;;;;;;;9.60;3.22;;;;;;;9.29;39.69;101721.08;1742073;82;25776;-60
2022/04/14 06:17:56;;;;;;;15.78;4.12;;;;;;;9.36;39.66;101721.06;1741650;82;26344;-59
2022/04/14 06:20:22;;;;;;;10.45;4.12;;;;;;;9.38;39.48;101719.10;1782058;80;25710;-59
2022/04/14 06:22:52;;;;;;;11.83;3.98;;;;;;;9.39;39.41;101721.33;1781321;79;27483;-59
2022/04/14 06:25:22;;;;;;;12.47;4.22;;;;;;;9.46;39.69;101719.94;1781276;79;25626;-59
2022/04/14 06:27:48;;;;;;;16.32;4.25;;;;;;;9.55;39.55;101721.11;1781140;80;25727;-59
2022/04/14 06:30:16;;;;;;;14.58;4.12;;;;;;;9.59;39.48;101729.34;1781790;80;27133;-59
2022/04/14 06:33:00;;;;;;;14.85;3.52;;;;;;;9.65;39.07;101732.09;1783207;79;25768;-58
2022/04/14 06:35:27;;;;;;;13.87;4.00;;;;;;;9.73;39.17;101722.17;1781910;79;28387;-59
2022/04/14 06:37:54;;;;;;;13.78;3.42;;;;;;;9.85;39.27;101728.00;1782756;79;25811;-59
2022/04/14 06:40:22;;;;;;;11.80;3.42;;;;;;;9.94;39.22;101723.33;1782973;79;25742;-60
2022/04/14 06:42:50;;;;;;;13.10;3.45;;;;;;;10.05;38.97;101721.70;1781431;80;25774;-59
2022/04/14 06:45:17;;;;;;;15.50;4.00;;;;;;;10.14;38.74;101725.08;1783047;79;26166;-59
2022/04/14 06:47:44;;;;;;;12.88;3.55;;;;;;;10.22;38.58;101722.70;1783035;79;27513;-59
2022/04/14 06:50:11;;;;;;;16.30;3.30;;;;;;;10.26;37.98;101724.67;1782999;79;25766;-59
2022/04/14 06:52:40;;;;;;;8.58;3.00;;;;;;;10.30;38.25;101714.94;1781135;80;25668;-59
2022/04/14 06:55:08;;;;;;;5.50;3.35;;;;;;;10.44;37.97;101719.34;1781694;80;27003;-59
2022/04/14 06:57:35;;;;;;;11.97;3.62;;;;;;;10.49;37.93;101715.81;1781463;80;25638;-60
2022/04/14 07:00:04;;;;;;;11.88;3.60;;;;;;;10.59;38.15;101717.36;1782990;79;27462;-59
2022/04/14 07:02:31;;;;;;;6.22;2.77;;;;;;;10.64;37.41;101714.33;1782068;80;25683;-59
2022/04/14 07:04:59;;;;;;;17.07;2.80;;;;;;;10.71;37.51;101714.74;1781331;80;26892;-59
2022/04/14 07:07:26;;;;;;;8.20;3.00;;;;;;;10.77;37.48;101715.63;1780312;80;26190;-59
2022/04/14 07:09:53;;;;;;;12.95;3.20;;;;;;;10.78;37.07;101707.92;1779470;80;25731;-59
2022/04/14 07:12:20;;;;;;;6.03;2.90;;;;;;;10.84;36.71;101710.15;1779250;80;29683;-59
2022/04/14 07:14:47;;;;;;;10.82;2.70;;;;;;;10.92;36.87;101709.08;1779994;80;25457;-60
2022/04/14 07:17:16;;;;;;;15.68;3.15;;;;;;;11.03;36.41;101720.38;1781142;79;25759;-59
2022/04/14 07:19:43;;;;;;;7.72;3.22;;;;;;;11.10;36.17;101712.70;1780981;79;26270;-60
2022/04/14 07:22:10;;;;;;;9.83;3.02;;;;;;;11.18;36.64;101698.16;1754313;81;25783;-60
2022/04/14 07:24:38;;;;;;;13.53;3.58;;;;;;;11.32;36.87;101697.10;1745502;81;27399;-60
2022/04/14 07:27:05;;;;;;;11.50;2.67;;;;;;;11.45;36.68;101709.14;1737236;82;26127;-59
2022/04/14 07:29:32;;;;;;;5.10;2.42;;;;;;;11.57;36.13;101706.84;1758119;81;25682;-60
2022/04/14 07:31:58;;;;;;;9.63;2.58;;;;;;;11.67;35.39;101706.97;1754361;81;26269;-59
2022/04/14 07:34:25;;;;;;;7.55;2.72;;;;;;;11.74;35.47;101707.36;1754127;81;25992;-60
2022/04/14 07:36:52;;;;;;;5.75;2.80;;;;;;;11.85;35.19;101708.72;1752398;81;27585;-59
2022/04/14 07:39:19;;;;;;;7.17;3.08;;;;;;;11.91;35.12;101706.03;1698300;84;25829;-59
2022/04/14 07:41:45;;;;;;;8.45;2.70;;;;;;;11.96;34.65;101701.11;1717075;82;25695;-59
2022/04/14 07:44:12;;;;;;;8.90;3.20;;;;;;;12.00;34.75;101700.41;1712629;83;26137;-60
2022/04/14 07:46:39;;;;;;;4.92;1.75;;;;;;;12.17;34.86;101699.06;1771074;80;26069;-60
2022/04/14 07:49:06;;;;;;;5.10;2.12;;;;;;;12.32;34.61;101699.67;1780961;80;28824;-60
2022/04/14 07:51:33;;;;;;;8.95;1.90;;;;;;;12.45;34.77;101690.08;1781158;80;25813;-59
2022/04/14 07:54:00;;;;;;;5.53;1.90;;;;;;;12.63;34.44;101688.56;1750374;81;25833;-59
2022/04/14 07:56:26;;;;;;;4.60;1.70;;;;;;;12.76;34.07;101692.92;1737140;82;26235;-60
2022/04/14 07:58:53;;;;;;;7.95;1.87;;;;;;;12.91;34.50;101697.53;1730945;82;25756;-60
2022/04/14 08:01:20;;;;;;;5.28;2.02;;;;;;;13.07;34.13;101695.25;1781170;80;28278;-60
2022/04/14 08:03:48;;;;;;;5.72;1.85;;;;;;;13.20;34.37;101691.01;1780670;80;25757;-60
2022/04/14 08:06:15;;;;;;;12.07;2.00;;;;;;;13.41;33.19;101691.04;1781174;80;25722;-59
2022/04/14 08:08:42;;;;;;;6.17;2.05;;;;;;;13.54;33.61;101693.53;1780950;79;27056;-60
2022/04/14 08:11:10;;;;;;;11.38;2.45;;;;;;;13.66;33.32;101696.17;1779681;80;25746;-60
2022/04/14 08:13:38;;;;;;;9.53;1.82;;;;;;;13.73;33.00;101699.56;1779321;80;27552;-59
2022/04/14 08:16:06;;;;;;;9.93;1.92;;;;;;;13.80;32.89;101699.02;1779166;80;25514;-59
2022/04/14 08:18:35;;;;;;;4.58;1.65;;;;;;;13.85;33.25;101698.14;1779236;80;25787;-59
2022/04/14 08:21:03;;;;;;;16.42;2.75;;;;;;;14.04;32.78;101699.55;1780642;79;26117;-59
2022/04/14 08:23:31;;;;;;;6.35;2.12;;;;;;;14.22;32.91;101707.02;1781048;79;26152;-60
2022/04/14 08:26:01;;;;;;;4.62;1.67;;;;;;;14.44;32.72;101704.59;1780673;80;27497;-59
2022/04/14 08:28:27;;;;;;;7.20;2.08;;;;;;;14.61;32.63;101699.00;1780926;80;25512;-59
2022/04/14 08:30:54;;;;;;;13.15;2.37;;;;;;;14.78;32.54;101697.50;1773428;80;25827;-60
2022/04/14 08:33:24;;;;;;;9.13;1.90;;;;;;;14.99;32.29;101700.08;1779267;80;26325;-60
2022/04/14 08:35:55;;;;;;;7.10;1.57;;;;;;;15.14;32.22;101692.38;1779261;80;25814;-58
2022/04/14 08:38:22;;;;;;;6.50;1.65;;;;;;;15.37;32.20;101688.50;1780807;79;27500;-60
2022/04/14 08:40:54;;;;;;;4.50;1.40;;;;;;;15.51;32.16;101693.45;1779221;80;26098;-60
2022/04/14 08:43:26;;;;;;;10.65;1.57;;;;;;;15.72;31.62;101689.69;1778478;80;25727;-60
2022/04/14 08:45:54;;;;;;;11.78;2.37;;;;;;;15.73;32.21;101684.11;1780636;80;26053;-61
2022/04/14 08:48:24;;;;;;;8.00;1.65;;;;;;;15.89;32.46;101686.72;1779319;80;25824;-60
2022/04/14 08:50:51;;;;;;;9.13;1.98;;;;;;;16.15;31.63;101684.67;1779205;80;27464;-60
2022/04/14 08:53:18;;;;;;;8.75;1.40;;;;;;;16.17;31.36;101684.02;1779017;80;25656;-60
2022/04/14 08:55:47;;;;;;;9.85;2.08;;;;;;;16.25;31.27;101686.84;1779497;80;25744;-60
2022/04/14 08:58:16;;;;;;;5.87;1.75;;;;;;;16.47;31.37;101688.28;1776190;80;26091;-59
2022/04/14 09:00:44;;;;;;;7.47;2.58;;;;;;;16.57;30.90;101690.95;1769542;80;25475;-59
2022/04/14 09:03:13;;;;;;;3.35;1.75;;;;;;;16.58;31.16;101688.07;1775270;80;27530;-59
2022/04/14 09:05:40;;;;;;;8.25;2.58;;;;;;;16.72;31.54;101700.76;1779446;80;25976;-60
2022/04/14 09:08:07;;;;;;;7.37;2.52;;;;;;;16.85;31.32;101696.33;1779064;80;25809;-59
2022/04/14 09:10:36;;;;;;;7.33;2.20;;;;;;;16.93;31.04;101690.09;1779551;80;27258;-59
2022/04/14 09:13:03;;;;;;;6.90;3.00;;;;;;;17.03;31.10;101694.98;1738374;81;25822;-60
2022/04/14 09:15:30;;;;;;;6.05;2.35;;;;;;;17.19;30.96;101689.68;1698108;84;27520;-60
2022/04/14 09:17:57;;;;;;;7.28;2.20;;;;;;;17.38;30.79;101693.22;1716517;83;25853;-60
2022/04/14 09:20:38;;;;;;;10.88;2.40;;;;;;;17.52;30.42;101699.47;1716756;83;25799;-61
2022/04/14 09:23:22;;;;;;;9.83;2.40;;;;;;;17.53;30.25;101694.34;1715017;83;25888;-61
2022/04/14 09:26:13;;;;;;;12.00;3.17;;;;;;;17.64;29.70;101694.61;1737147;82;27016;-61
2022/04/14 09:29:01;;;;;;;8.83;2.72;;;;;;;17.64;29.89;101703.26;1736790;82;27471;-61
2022/04/14 09:31:29;;;;;;;7.53;2.98;;;;;;;17.73;29.37;101694.66;1744687;81;25791;-60
2022/04/14 09:33:56;;;;;;;9.28;2.50;;;;;;;17.61;29.82;101702.23;1753771;81;25747;-61
2022/04/14 09:36:28;;;;;;;12.00;2.17;;;;;;;17.60;29.80;101704.09;1754203;81;26026;-60
2022/04/14 09:39:07;;;;;;;6.10;2.22;;;;;;;17.58;29.98;101698.47;1732304;79;26209;-61
2022/04/14 09:41:44;;;;;;;7.67;2.52;;;;;;;17.53;30.18;101702.50;1707727;84;28509;-61
2022/04/14 09:44:13;;;;;;;5.00;1.90;;;;;;;17.57;30.29;101701.68;1708038;82;25689;-60
2022/04/14 09:46:48;;;;;;;9.50;2.30;;;;;;;17.58;29.55;101709.35;1707862;82;26104;-60
2022/04/14 09:49:17;;;;;;;11.53;2.45;;;;;;;17.57;29.19;101708.48;1707244;84;26749;-64
2022/04/14 09:51:47;;;;;;;7.65;2.17;;;;;;;17.56;29.15;101704.57;1707610;82;26112;-61
2022/04/14 09:54:20;;;;;;;6.75;2.30;;;;;;;17.52;29.27;101706.76;1707412;84;27470;-61
2022/04/14 09:56:53;;;;;;;6.35;2.60;;;;;;;17.55;29.27;101707.81;1690879;83;25783;-60
2022/04/14 09:59:22;;;;;;;;;;;;;;;17.56;29.52;101716.81;1709385;84;25813;-61
2022/04/14 10:02:10;;;;;;;6.15;1.67;;;;;;;17.66;29.47;101704.80;1705913;84;26088;-61
2022/04/14 10:04:48;;;;;;;7.85;1.80;;;;;;;17.66;29.49;101704.80;1750388;81;26054;-61
2022/04/14 10:07:20;;;;;;;8.75;1.50;;;;;;;17.73;29.47;101707.74;1751755;81;29611;-61
2022/04/14 10:09:50;;;;;;;6.72;1.82;;;;;;;18.04;29.23;101703.19;1753323;81;25763;-61
2022/04/14 10:12:30;;;;;;;7.15;1.87;;;;;;;18.32;28.96;101697.52;1753962;81;25809;-61
2022/04/14 10:15:09;;;;;;;12.95;2.47;;;;;;;18.44;28.70;101698.91;1753789;81;26301;-60
2022/04/14 10:17:38;;;;;;;10.38;1.67;;;;;;;18.61;27.74;101694.86;1753228;81;25513;-61
2022/04/14 10:20:08;;;;;;;8.15;1.85;;;;;;;18.50;27.74;101694.67;1670297;85;27663;-60
2022/04/14 10:22:37;;;;;;;7.37;1.42;;;;;;;18.45;27.07;101694.33;1687912;85;25867;-61
2022/04/14 10:25:07;;;;;;;7.50;1.70;;;;;;;18.28;27.54;101692.92;1709231;83;25814;-61
2022/04/14 10:27:39;;;;;;;5.70;1.47;;;;;;;18.30;27.71;101688.66;1679341;83;26151;-61
2022/04/14 10:30:08;;;;;;;3.08;1.80;;;;;;;18.21;27.71;101701.89;1717026;81;26093;-61
2022/04/14 10:32:35;;;;;;;5.55;1.52;;;;;;;18.17;27.95;101695.06;1779272;80;27058;-61
2022/04/14 10:35:08;;;;;;;5.85;1.70;;;;;;;18.22;27.08;101692.19;1779025;80;25718;-60
2022/04/14 10:37:43;;;;;;;9.08;2.00;;;;;;;17.97;27.34;101693.97;1816181;78;25515;-60
2022/04/14 10:40:12;;;;;;;6.42;1.70;;;;;;;17.85;27.98;101700.15;1738229;81;26087;-60
2022/04/14 10:42:52;;;;;;;4.83;1.82;;;;;;;17.85;28.42;101704.23;1737231;82;25713;-60
2022/04/14 10:45:23;;;;;;;4.87;1.85;;;;;;;17.88;28.02;101703.08;1728349;82;27468;-60
2022/04/14 10:47:56;;;;;;;3.30;1.50;;;;;;;17.88;27.99;101703.08;1779839;80;25532;-60
2022/04/14 10:50:30;;;;;;;6.05;1.90;;;;;;;17.90;28.18;101696.45;1761469;80;25525;-60
2022/04/14 10:53:19;;;;;;;4.80;2.00;;;;;;;17.96;27.87;101693.63;1780707;79;26098;-60
2022/04/14 10:55:50;;;;;;;3.70;1.45;;;;;;;17.94;28.12;101687.45;1780861;79;25683;-60
2022/04/14 10:58:41;;;;;;;4.30;2.00;;;;;;;18.04;27.97;101690.94;1779952;79;27496;-61
2022/04/14 11:01:13;;;;;;;6.85;1.57;;;;;;;18.07;27.88;101691.95;1778868;80;25844;-60
2022/04/14 11:03:52;;;;;;;6.35;1.98;;;;;;;17.96;27.87;101688.18;1779169;79;25615;-59
2022/04/14 11:06:43;;;;;;;5.17;1.52;;;;;;;17.83;28.36;101689.95;1778910;80;27076;-60
2022/04/14 11:10:00;;;;;;;5.33;1.70;;;;;;;17.90;28.30;101694.22;1779038;80;25761;-60
2022/04/14 11:12:40;;;;;;;4.03;1.65;;;;;;;17.89;28.12;101687.94;1725869;83;28591;-61
2022/04/14 11:15:12;;;;;;;11.45;1.50;;;;;;;17.79;27.89;101701.67;1777709;80;25868;-61
2022/04/14 11:17:48;;;;;;;13.60;1.50;;;;;;;17.92;27.83;101693.56;1779575;80;25528;-61
2022/04/14 11:20:34;;;;;;;2.02;1.25;;;;;;;17.99;27.95;101694.64;1753914;81;26235;-59
2022/04/14 11:23:13;;;;;;;4.83;1.32;;;;;;;18.10;27.53;101697.61;1753885;81;25930;-60
2022/04/14 11:25:51;;;;;;;2.37;1.02;;;;;;;18.03;27.69;101693.80;1767098;81;27487;-60
2022/04/14 11:28:27;;;;;;;2.10;1.12;;;;;;;18.00;27.51;101689.55;1751401;81;25521;-60
2022/04/14 11:31:20;;;;;;;4.22;1.32;;;;;;;17.83;27.71;101702.20;1778867;80;25555;-60
2022/04/14 11:33:49;;;;;;;2.30;1.30;;;;;;;17.79;27.54;101706.25;1779075;80;26137;-60
2022/04/14 11:36:25;;;;;;;7.72;1.72;;;;;;;17.65;27.46;101703.61;1778980;80;25834;-60